| time (UTC) | temp C | wind direction | speed KPH | gust KPH | rain 1hr cm | rain 24hr cm | rain mn cm | humidity % | barometer mb |
| 20260502180535 | 30 | 153 | 22.5 | 33.8 | 0.00 | 0.00 | 0.00 | 23 | 1013.6 |
| 20260502164034 | 28 | 134 | 16.1 | 33.8 | 0.00 | 0.00 | 0.00 | 26 | 1013.8 |
| 20260502163535 | 28 | 142 | 16.1 | 37.0 | 0.00 | 0.00 | 0.00 | 25 | 1013.9 |
| 20260502163053 | 28 | 116 | 25.7 | 37.0 | 0.00 | 0.00 | 0.00 | 25 | 1013.9 |
| 20260502162536 | 28 | 155 | 24.1 | 37.0 | 0.00 | 0.00 | 0.00 | 25 | 1013.9 |
| 20260502162037 | 28 | 141 | 14.5 | 37.0 | 0.00 | 0.00 | 0.00 | 26 | 1013.9 |
| 20260502161549 | 28 | 146 | 24.1 | 35.4 | 0.00 | 0.00 | 0.00 | 25 | 1013.8 |
| 20260502161035 | 27 | 134 | 12.9 | 32.2 | 0.00 | 0.00 | 0.00 | 24 | 1013.9 |
| 20260502160535 | 27 | 168 | 16.1 | 27.4 | 0.00 | 0.00 | 0.00 | 23 | 1013.9 |
| 20260502152035 | 26 | 181 | 14.5 | 22.5 | 0.00 | 0.00 | 0.00 | 23 | 1013.5 |
| 20260502151553 | 26 | 130 | 17.7 | 24.1 | 0.00 | 0.00 | 0.00 | 24 | 1013.5 |
| 20260502151034 | 26 | 142 | 16.1 | 25.7 | 0.00 | 0.00 | 0.00 | 24 | 1013.5 |
| 20260502150534 | 26 | 170 | 16.1 | 25.7 | 0.00 | 0.00 | 0.00 | 24 | 1013.3 |
| 20260502130537 | 21 | 67 | 3.2 | 8.0 | 0.00 | 0.00 | 0.00 | 30 | 1012.0 |
| 20260502123536 | 21 | 51 | 3.2 | 12.9 | 0.00 | 0.00 | 0.00 | 29 | 1011.6 |
| 20260502123049 | 21 | 20 | 4.8 | 8.0 | 0.00 | 0.00 | 0.00 | 28 | 1011.6 |
| 20260502122535 | 21 | 178 | 1.6 | 8.0 | 0.00 | 0.00 | 0.00 | 28 | 1011.5 |
| 20260502122034 | 21 | 341 | 3.2 | 8.0 | 0.00 | 0.00 | 0.00 | 28 | 1011.4 |
| 20260502121551 | 21 | 9 | 4.8 | 11.3 | 0.00 | 0.00 | 0.00 | 28 | 1011.2 |
| 20260502121035 | 21 | 9 | 3.2 | 14.5 | 0.00 | 0.00 | 0.00 | 28 | 1011.2 |
| 20260502120536 | 21 | 42 | 8.0 | 14.5 | 0.00 | 0.00 | 0.00 | 29 | 1011.2 |
| 20260502115538 | 21 | 13 | 4.8 | 9.7 | 0.00 | 0.00 | 0.00 | 29 | 1011.2 |
| 20260502115035 | 21 | 24 | 1.6 | 6.4 | 0.00 | 0.00 | 0.00 | 30 | 1011.3 |
| 20260502114549 | 21 | 0 | 1.6 | 6.4 | 0.00 | 0.00 | 0.00 | 29 | 1011.3 |
| 20260502114035 | 20 | 88 | 3.2 | 6.4 | 0.00 | 0.00 | 0.00 | 29 | 1011.2 |
| 20260502113535 | 20 | 124 | 1.6 | 4.8 | 0.00 | 0.00 | 0.00 | 29 | 1011.1 |
| 20260502113045 | 20 | 0 | 0.0 | 6.4 | 0.00 | 0.00 | 0.00 | 29 | 1011.2 |
| 20260502112534 | 20 | 86 | 1.6 | 6.4 | 0.00 | 0.00 | 0.00 | 30 | 1011.2 |
| 20260502112035 | 20 | 86 | 1.6 | 4.8 | 0.00 | 0.00 | 0.00 | 30 | 1011.1 |
| 20260502111545 | 20 | 92 | 1.6 | 4.8 | 0.00 | 0.00 | 0.00 | 30 | 1011.2 |
| 20260502111036 | 20 | 80 | 1.6 | 4.8 | 0.00 | 0.00 | 0.00 | 29 | 1011.1 |
| 20260502110534 | 20 | 76 | 3.2 | 6.4 | 0.00 | 0.00 | 0.00 | 29 | 1011.1 |
| 20260502110054 | 20 | 247 | 1.6 | 6.4 | 0.00 | 0.00 | 0.00 | 28 | 1011.1 |
| 20260502105534 | 20 | 92 | 0.0 | 3.2 | 0.00 | 0.00 | 0.00 | 27 | 1011.1 |
| 20260502105036 | 20 | 0 | 0.0 | 4.8 | 0.00 | 0.00 | 0.00 | 28 | 1011.2 |
| 20260502104551 | 20 | 0 | 1.6 | 4.8 | 0.00 | 0.00 | 0.00 | 27 | 1011.1 |
| 20260502104035 | 21 | 136 | 1.6 | 4.8 | 0.00 | 0.00 | 0.00 | 28 | 1011.1 |
| 20260502103535 | 21 | 148 | 0.0 | 3.2 | 0.00 | 0.00 | 0.00 | 27 | 1011.1 |
| 20260502103054 | 21 | 170 | 1.6 | 3.2 | 0.00 | 0.00 | 0.00 | 26 | 1011.1 |
| 20260502102538 | 21 | 0 | 0.0 | 3.2 | 0.00 | 0.00 | 0.00 | 26 | 1011.0 |
| 20260502102035 | 22 | 51 | 0.0 | 3.2 | 0.00 | 0.00 | 0.00 | 26 | 1011.0 |
| 20260502101557 | 22 | 0 | 0.0 | 4.8 | 0.00 | 0.00 | 0.00 | 26 | 1010.9 |
| 20260502101034 | 22 | 80 | 0.0 | 4.8 | 0.00 | 0.00 | 0.00 | 26 | 1010.9 |
| 20260502100534 | 22 | 67 | 1.6 | 3.2 | 0.00 | 0.00 | 0.00 | 25 | 1010.8 |
| 20260502100108 | 22 | 0 | 1.6 | 4.8 | 0.00 | 0.00 | 0.00 | 25 | 1010.8 |
| 20260502091036 | 23 | 22 | 1.6 | 8.0 | 0.00 | 0.00 | 0.00 | 24 | 1010.7 |
| 20260502090535 | 23 | 34 | 4.8 | 8.0 | 0.00 | 0.00 | 0.00 | 25 | 1010.6 |
| 20260502071035 | 24 | 28 | 1.6 | 8.0 | 0.00 | 0.00 | 0.00 | 22 | 1009.9 |
| 20260502070535 | 25 | 44 | 0.0 | 12.9 | 0.00 | 0.00 | 0.00 | 22 | 1009.9 |
| 20260502070049 | 25 | 279 | 6.4 | 14.5 | 0.00 | 0.00 | 0.00 | 21 | 1009.9 |
| 20260502065538 | 25 | 255 | 9.7 | 14.5 | 0.00 | 0.00 | 0.00 | 21 | 1009.8 |
| 20260502065034 | 25 | 249 | 3.2 | 16.1 | 0.00 | 0.00 | 0.00 | 21 | 1009.8 |
| 20260502064553 | 25 | 0 | 6.4 | 16.1 | 0.00 | 0.00 | 0.00 | 20 | 1009.8 |
| 20260502064035 | 25 | 254 | 11.3 | 16.1 | 0.00 | 0.00 | 0.00 | 20 | 1009.8 |
| 20260502063537 | 25 | 259 | 9.7 | 19.3 | 0.00 | 0.00 | 0.00 | 20 | 1009.7 |
| 20260502063042 | 25 | 250 | 12.9 | 19.3 | 0.00 | 0.00 | 0.00 | 20 | 1009.7 |
| 20260502062536 | 25 | 248 | 11.3 | 19.3 | 0.00 | 0.00 | 0.00 | 20 | 1009.7 |
| 20260502062034 | 25 | 248 | 11.3 | 19.3 | 0.00 | 0.00 | 0.00 | 20 | 1009.7 |
| 20260502061600 | 25 | 252 | 9.7 | 17.7 | 0.00 | 0.00 | 0.00 | 20 | 1009.7 |
| 20260502061035 | 25 | 246 | 12.9 | 17.7 | 0.00 | 0.00 | 0.00 | 20 | 1009.7 |
| 20260502060536 | 25 | 229 | 9.7 | 16.1 | 0.00 | 0.00 | 0.00 | 20 | 1009.6 |
| 20260502060048 | 25 | 254 | 11.3 | 17.7 | 0.00 | 0.00 | 0.00 | 20 | 1009.6 |
| 20260502055535 | 25 | 255 | 12.9 | 17.7 | 0.00 | 0.00 | 0.00 | 20 | 1009.6 |
| 20260502055035 | 25 | 254 | 12.9 | 17.7 | 0.00 | 0.00 | 0.00 | 20 | 1009.5 |
| 20260502054545 | 25 | 271 | 9.7 | 16.1 | 0.00 | 0.00 | 0.00 | 21 | 1009.6 |
| 20260502054034 | 25 | 273 | 11.3 | 16.1 | 0.00 | 0.00 | 0.00 | 21 | 1009.6 |
| 20260502053535 | 25 | 273 | 11.3 | 16.1 | 0.00 | 0.00 | 0.00 | 20 | 1009.6 |
| 20260502053047 | 25 | 291 | 11.3 | 16.1 | 0.00 | 0.00 | 0.00 | 20 | 1009.5 |
| 20260502052536 | 25 | 275 | 9.7 | 14.5 | 0.00 | 0.00 | 0.00 | 20 | 1009.5 |
| 20260502052036 | 26 | 291 | 9.7 | 14.5 | 0.00 | 0.00 | 0.00 | 19 | 1009.4 |
| 20260502051545 | 26 | 288 | 9.7 | 14.5 | 0.00 | 0.00 | 0.00 | 19 | 1009.4 |
| 20260502051035 | 26 | 273 | 11.3 | 14.5 | 0.00 | 0.00 | 0.00 | 19 | 1009.5 |
| 20260502050536 | 26 | 284 | 8.0 | 14.5 | 0.00 | 0.00 | 0.00 | 18 | 1009.4 |
| 20260502050051 | 26 | 286 | 9.7 | 14.5 | 0.00 | 0.00 | 0.00 | 18 | 1009.3 |
| 20260502045535 | 27 | 288 | 9.7 | 12.9 | 0.00 | 0.00 | 0.00 | 18 | 1009.3 |
| 20260502045035 | 27 | 282 | 8.0 | 12.9 | 0.00 | 0.00 | 0.00 | 18 | 1009.2 |
| 20260502044540 | 27 | 286 | 6.4 | 11.3 | 0.00 | 0.00 | 0.00 | 17 | 1009.2 |
| 20260502044035 | 27 | 288 | 6.4 | 11.3 | 0.00 | 0.00 | 0.00 | 17 | 1009.0 |
| 20260502043535 | 27 | 286 | 6.4 | 12.9 | 0.00 | 0.00 | 0.00 | 17 | 1009.1 |
| 20260502043101 | 27 | 279 | 6.4 | 12.9 | 0.00 | 0.00 | 0.00 | 17 | 1009.0 |
| 20260502042536 | 28 | 282 | 6.4 | 12.9 | 0.00 | 0.00 | 0.00 | 17 | 1008.9 |
| 20260502042035 | 28 | 275 | 6.4 | 12.9 | 0.00 | 0.00 | 0.00 | 17 | 1008.9 |
| 20260502041552 | 28 | 265 | 4.8 | 12.9 | 0.00 | 0.00 | 0.00 | 16 | 1008.7 |
| 20260502041035 | 28 | 286 | 6.4 | 12.9 | 0.00 | 0.00 | 0.00 | 16 | 1008.8 |
| 20260502040536 | 28 | 272 | 6.4 | 12.9 | 0.00 | 0.00 | 0.00 | 16 | 1008.7 |
| 20260502040108 | 28 | 286 | 6.4 | 12.9 | 0.00 | 0.00 | 0.00 | 16 | 1008.7 |
| 20260502035535 | 28 | 265 | 6.4 | 11.3 | 0.00 | 0.00 | 0.00 | 16 | 1008.7 |
| 20260502035037 | 28 | 273 | 6.4 | 11.3 | 0.00 | 0.00 | 0.00 | 16 | 1008.6 |
| 20260502034545 | 28 | 257 | 4.8 | 9.7 | 0.00 | 0.00 | 0.00 | 16 | 1008.6 |
| 20260502034036 | 28 | 265 | 4.8 | 9.7 | 0.00 | 0.00 | 0.00 | 16 | 1008.5 |
| 20260502033535 | 28 | 280 | 4.8 | 11.3 | 0.00 | 0.00 | 0.00 | 17 | 1008.5 |
| 20260502033048 | 28 | 273 | 4.8 | 12.9 | 0.00 | 0.00 | 0.00 | 17 | 1008.5 |
| 20260502032536 | 28 | 254 | 4.8 | 12.9 | 0.00 | 0.00 | 0.00 | 17 | 1008.3 |
| 20260502032035 | 28 | 275 | 4.8 | 12.9 | 0.00 | 0.00 | 0.00 | 17 | 1008.2 |
| 20260502031550 | 28 | 279 | 4.8 | 11.3 | 0.00 | 0.00 | 0.00 | 17 | 1008.3 |
| 20260502031038 | 28 | 247 | 4.8 | 12.9 | 0.00 | 0.00 | 0.00 | 17 | 1008.2 |
| 20260502030537 | 29 | 279 | 4.8 | 12.9 | 0.00 | 0.00 | 0.00 | 17 | 1008.2 |
| 20260502030050 | 29 | 293 | 6.4 | 12.9 | 0.00 | 0.00 | 0.00 | 17 | 1008.1 |
| 20260502025537 | 29 | 269 | 6.4 | 11.3 | 0.00 | 0.00 | 0.00 | 17 | 1008.0 |
| 20260502025039 | 29 | 275 | 6.4 | 11.3 | 0.00 | 0.00 | 0.00 | 17 | 1007.9 |
| 20260502024600 | 29 | 247 | 6.4 | 14.5 | 0.00 | 0.00 | 0.00 | 17 | 1007.9 |
| 20260502024036 | 29 | 257 | 6.4 | 14.5 | 0.00 | 0.00 | 0.00 | 17 | 1007.8 |
| 20260502023540 | 30 | 259 | 8.0 | 12.9 | 0.00 | 0.00 | 0.00 | 17 | 1007.8 |
| 20260502023051 | 30 | 250 | 6.4 | 14.5 | 0.00 | 0.00 | 0.00 | 16 | 1007.7 |
| 20260502022535 | 30 | 265 | 8.0 | 14.5 | 0.00 | 0.00 | 0.00 | 17 | 1007.7 |
| 20260502022036 | 30 | 249 | 6.4 | 14.5 | 0.00 | 0.00 | 0.00 | 17 | 1007.7 |
| 20260502021552 | 30 | 257 | 8.0 | 17.7 | 0.00 | 0.00 | 0.00 | 17 | 1007.6 |
| 20260502021035 | 30 | 272 | 9.7 | 17.7 | 0.00 | 0.00 | 0.00 | 17 | 1007.6 |
| 20260502020535 | 30 | 261 | 12.9 | 19.3 | 0.00 | 0.00 | 0.00 | 17 | 1007.5 |
| 20260502020046 | 30 | 265 | 14.5 | 19.3 | 0.00 | 0.00 | 0.00 | 16 | 1007.6 |
| 20260502015537 | 30 | 249 | 12.9 | 24.1 | 0.00 | 0.00 | 0.00 | 17 | 1007.5 |
| 20260502015038 | 30 | 254 | 16.1 | 24.1 | 0.00 | 0.00 | 0.00 | 16 | 1007.5 |
| 20260502014546 | 30 | 284 | 11.3 | 19.3 | 0.00 | 0.00 | 0.00 | 16 | 1007.5 |
| 20260502014035 | 31 | 265 | 12.9 | 17.7 | 0.00 | 0.00 | 0.00 | 16 | 1007.5 |
| 20260502013535 | 31 | 252 | 12.9 | 20.9 | 0.00 | 0.00 | 0.00 | 16 | 1007.5 |
| 20260502013051 | 31 | 262 | 12.9 | 22.5 | 0.00 | 0.00 | 0.00 | 16 | 1007.6 |
| 20260502012537 | 31 | 239 | 12.9 | 22.5 | 0.00 | 0.00 | 0.00 | 16 | 1007.6 |
| 20260502012035 | 31 | 272 | 11.3 | 20.9 | 0.00 | 0.00 | 0.00 | 16 | 1007.4 |
| 20260502011544 | 31 | 269 | 14.5 | 20.9 | 0.00 | 0.00 | 0.00 | 16 | 1007.5 |
| 20260502011034 | 31 | 244 | 14.5 | 22.5 | 0.00 | 0.00 | 0.00 | 16 | 1007.5 |
| 20260502010534 | 31 | 237 | 14.5 | 24.1 | 0.00 | 0.00 | 0.00 | 16 | 1007.5 |
| 20260502010107 | 31 | 284 | 16.1 | 24.1 | 0.00 | 0.00 | 0.00 | 16 | 1007.6 |
| 20260502005534 | 31 | 236 | 16.1 | 24.1 | 0.00 | 0.00 | 0.00 | 16 | 1007.5 |
| 20260502005035 | 31 | 229 | 14.5 | 22.5 | 0.00 | 0.00 | 0.00 | 16 | 1007.5 |
| 20260502004559 | 31 | 304 | 14.5 | 20.9 | 0.00 | 0.00 | 0.00 | 16 | 1007.5 |
| 20260502004039 | 31 | 238 | 12.9 | 22.5 | 0.00 | 0.00 | 0.00 | 16 | 1007.5 |
| 20260502003534 | 31 | 229 | 12.9 | 22.5 | 0.00 | 0.00 | 0.00 | 16 | 1007.5 |
| 20260502003046 | 31 | 242 | 16.1 | 24.1 | 0.00 | 0.00 | 0.00 | 16 | 1007.5 |
| 20260502002534 | 31 | 247 | 12.9 | 24.1 | 0.00 | 0.00 | 0.00 | 16 | 1007.5 |
| 20260502002035 | 31 | 249 | 14.5 | 20.9 | 0.00 | 0.00 | 0.00 | 16 | 1007.6 |
| 20260502001545 | 31 | 232 | 12.9 | 20.9 | 0.00 | 0.00 | 0.00 | 16 | 1007.7 |
| 20260502001034 | 31 | 240 | 9.7 | 20.9 | 0.00 | 0.00 | 0.00 | 17 | 1007.7 |
| 20260502000536 | 31 | 234 | 14.5 | 20.9 | 0.00 | 0.00 | 0.00 | 17 | 1007.8 |
| 20260502000044 | 31 | 277 | 8.0 | 22.5 | 0.00 | 0.00 | 0.00 | 17 | 1007.9 |
| 20260501235536 | 31 | 238 | 16.1 | 22.5 | 0.00 | 0.00 | 0.00 | 17 | 1007.9 |
| 20260501235034 | 32 | 259 | 11.3 | 24.1 | 0.00 | 0.00 | 0.00 | 17 | 1007.9 |
| 20260501234545 | 32 | 213 | 12.9 | 24.1 | 0.00 | 0.00 | 0.00 | 17 | 1007.9 |
| 20260501234035 | 32 | 252 | 9.7 | 19.3 | 0.00 | 0.00 | 0.00 | 17 | 1007.9 |
| 20260501233534 | 32 | 232 | 12.9 | 20.9 | 0.00 | 0.00 | 0.00 | 17 | 1007.9 |
| 20260501233041 | 32 | 236 | 9.7 | 22.5 | 0.00 | 0.00 | 0.00 | 17 | 1008.0 |
| 20260501232538 | 32 | 247 | 12.9 | 22.5 | 0.00 | 0.00 | 0.00 | 18 | 1007.9 |
| 20260501232035 | 31 | 265 | 6.4 | 22.5 | 0.00 | 0.00 | 0.00 | 18 | 1008.0 |
| 20260501231548 | 31 | 247 | 8.0 | 29.0 | 0.00 | 0.00 | 0.00 | 18 | 1008.0 |
| 20260501231035 | 31 | 284 | 12.9 | 29.0 | 0.00 | 0.00 | 0.00 | 19 | 1008.1 |
| 20260501230535 | 31 | 254 | 11.3 | 29.0 | 0.00 | 0.00 | 0.00 | 18 | 1008.0 |
| 20260501230056 | 31 | 273 | 8.0 | 29.0 | 0.00 | 0.00 | 0.00 | 18 | 1008.1 |
| 20260501225535 | 32 | 244 | 12.9 | 22.5 | 0.00 | 0.00 | 0.00 | 18 | 1008.1 |
| 20260501225035 | 31 | 232 | 8.0 | 22.5 | 0.00 | 0.00 | 0.00 | 18 | 1008.3 |
| 20260501224545 | 31 | 275 | 12.9 | 20.9 | 0.00 | 0.00 | 0.00 | 19 | 1008.4 |
| 20260501224034 | 31 | 254 | 4.8 | 24.1 | 0.00 | 0.00 | 0.00 | 18 | 1008.4 |
| 20260501223535 | 31 | 297 | 14.5 | 24.1 | 0.00 | 0.00 | 0.00 | 18 | 1008.5 |
| 20260501223048 | 31 | 275 | 4.8 | 22.5 | 0.00 | 0.00 | 0.00 | 20 | 1008.5 |
| 20260501222535 | 31 | 288 | 16.1 | 22.5 | 0.00 | 0.00 | 0.00 | 18 | 1008.6 |
| 20260501222033 | 32 | 261 | 12.9 | 20.9 | 0.00 | 0.00 | 0.00 | 19 | 1008.7 |
| 20260501221542 | 31 | 265 | 6.4 | 14.5 | 0.00 | 0.00 | 0.00 | 19 | 1008.7 |
| 20260501221036 | 31 | 265 | 3.2 | 24.1 | 0.00 | 0.00 | 0.00 | 19 | 1008.7 |
| 20260501220534 | 31 | 38 | 12.9 | 24.1 | 0.00 | 0.00 | 0.00 | 17 | 1009.0 |
| 20260501220053 | 31 | 272 | 14.5 | 27.4 | 0.00 | 0.00 | 0.00 | 19 | 1009.0 |
| 20260501215537 | 31 | 250 | 19.3 | 27.4 | 0.00 | 0.00 | 0.00 | 17 | 1009.1 |
| 20260501215035 | 31 | 302 | 11.3 | 25.7 | 0.00 | 0.00 | 0.00 | 18 | 1009.2 |
| 20260501214554 | 31 | 265 | 16.1 | 25.7 | 0.00 | 0.00 | 0.00 | 19 | 1009.3 |
| 20260501214034 | 31 | 266 | 8.0 | 20.9 | 0.00 | 0.00 | 0.00 | 18 | 1009.3 |
| 20260501213534 | 31 | 286 | 12.9 | 19.3 | 0.00 | 0.00 | 0.00 | 17 | 1009.4 |
| 20260501213046 | 31 | 325 | 4.8 | 25.7 | 0.00 | 0.00 | 0.00 | 17 | 1009.5 |
| 20260501212534 | 31 | 336 | 11.3 | 25.7 | 0.00 | 0.00 | 0.00 | 17 | 1009.6 |
| 20260501212034 | 31 | 279 | 12.9 | 22.5 | 0.00 | 0.00 | 0.00 | 17 | 1009.7 |
| 20260501211551 | 31 | 330 | 8.0 | 25.7 | 0.00 | 0.00 | 0.00 | 17 | 1009.8 |
| 20260501211035 | 31 | 9 | 6.4 | 25.7 | 0.00 | 0.00 | 0.00 | 19 | 1009.9 |
| 20260501210534 | 30 | 247 | 8.0 | 22.5 | 0.00 | 0.00 | 0.00 | 20 | 1009.9 |
| 20260501210048 | 30 | 296 | 12.9 | 24.1 | 0.00 | 0.00 | 0.00 | 18 | 1010.0 |
| 20260501205537 | 30 | 63 | 3.2 | 24.1 | 0.00 | 0.00 | 0.00 | 22 | 1010.0 |
| 20260501205034 | 30 | 284 | 16.1 | 24.1 | 0.00 | 0.00 | 0.00 | 21 | 1010.2 |
| 20260501204621 | 30 | 0 | 11.3 | 24.1 | 0.00 | 0.00 | 0.00 | 22 | 1010.2 |
| 20260501204035 | 30 | 247 | 11.3 | 25.7 | 0.00 | 0.00 | 0.00 | 22 | 1010.2 |
| 20260501203535 | 30 | 284 | 12.9 | 27.4 | 0.00 | 0.00 | 0.00 | 22 | 1010.3 |
| 20260501203047 | 30 | 273 | 9.7 | 27.4 | 0.00 | 0.00 | 0.00 | 22 | 1010.3 |
| 20260501202535 | 29 | 265 | 12.9 | 22.5 | 0.00 | 0.00 | 0.00 | 23 | 1010.3 |
| 20260501202035 | 29 | 310 | 8.0 | 25.7 | 0.00 | 0.00 | 0.00 | 23 | 1010.4 |
| 20260501201546 | 29 | 277 | 14.5 | 25.7 | 0.00 | 0.00 | 0.00 | 22 | 1010.4 |
| 20260501201034 | 29 | 241 | 17.7 | 27.4 | 0.00 | 0.00 | 0.00 | 23 | 1010.4 |
| 20260501200534 | 29 | 275 | 17.7 | 27.4 | 0.00 | 0.00 | 0.00 | 23 | 1010.4 |
| 20260501200053 | 29 | 67 | 3.2 | 25.7 | 0.00 | 0.00 | 0.00 | 24 | 1010.4 |
| 20260501195534 | 29 | 170 | 14.5 | 30.6 | 0.00 | 0.00 | 0.00 | 23 | 1010.5 |
| 20260501195035 | 29 | 279 | 12.9 | 30.6 | 0.00 | 0.00 | 0.00 | 24 | 1010.6 |
| 20260501194558 | 28 | 298 | 4.8 | 25.7 | 0.00 | 0.00 | 0.00 | 25 | 1010.7 |
| 20260501194035 | 28 | 262 | 14.5 | 25.7 | 0.00 | 0.00 | 0.00 | 24 | 1010.8 |
| 20260501193536 | 28 | 292 | 14.5 | 25.7 | 0.00 | 0.00 | 0.00 | 25 | 1010.9 |
| 20260501193045 | 28 | 309 | 6.4 | 25.7 | 0.00 | 0.00 | 0.00 | 26 | 1010.8 |
| 20260501192538 | 28 | 240 | 14.5 | 24.1 | 0.00 | 0.00 | 0.00 | 25 | 1011.0 |
| 20260501192035 | 28 | 279 | 14.5 | 20.9 | 0.00 | 0.00 | 0.00 | 26 | 1011.0 |
| 20260501191552 | 28 | 245 | 4.8 | 22.5 | 0.00 | 0.00 | 0.00 | 25 | 1011.1 |
| 20260501191036 | 28 | 184 | 6.4 | 24.1 | 0.00 | 0.00 | 0.00 | 25 | 1011.2 |
| 20260501190535 | 28 | 298 | 12.9 | 24.1 | 0.00 | 0.00 | 0.00 | 26 | 1011.2 |
| 20260501190048 | 28 | 237 | 9.7 | 22.5 | 0.00 | 0.00 | 0.00 | 26 | 1011.2 |
| 20260501185535 | 28 | 300 | 14.5 | 22.5 | 0.00 | 0.00 | 0.00 | 26 | 1011.3 |
| 20260501185035 | 28 | 250 | 4.8 | 19.3 | 0.00 | 0.00 | 0.00 | 26 | 1011.4 |
| 20260501184547 | 28 | 328 | 3.2 | 20.9 | 0.00 | 0.00 | 0.00 | 27 | 1011.5 |
| 20260501184035 | 28 | 280 | 12.9 | 20.9 | 0.00 | 0.00 | 0.00 | 26 | 1011.6 |
| 20260501183538 | 28 | 153 | 1.6 | 19.3 | 0.00 | 0.00 | 0.00 | 26 | 1011.6 |
| 20260501183048 | 28 | 249 | 12.9 | 25.7 | 0.00 | 0.00 | 0.00 | 26 | 1011.8 |
| 20260501182538 | 27 | 215 | 9.7 | 25.7 | 0.00 | 0.00 | 0.00 | 26 | 1011.8 |
| 20260501182035 | 27 | 334 | 4.8 | 14.5 | 0.00 | 0.00 | 0.00 | 27 | 1011.9 |
| 20260501181551 | 27 | 265 | 4.8 | 17.7 | 0.00 | 0.00 | 0.00 | 27 | 1012.0 |
| 20260501181035 | 27 | 238 | 8.0 | 20.9 | 0.00 | 0.00 | 0.00 | 28 | 1012.1 |